Time;durP1;ratioP1;P1;durP2;ratioP2;P2;SDS_P1;SDS_P2;PMS_P1;PMS_P2;Temp;Humidity;BMP_temperature;BMP_pressure;BME280_temperature;BME280_humidity;BME280_pressure;Samples;Min_cycle;Max_cycle;Signal;HPM_P1;HPM_P2
2024/04/04 00:00:20;;;;;;;0.45;0.40;;;;;;;;;;5015923;28;20454;-79
2024/04/04 00:02:46;;;;;;;0.93;0.10;;;;;;;;;;5015735;28;20073;-77
2024/04/04 00:05:13;;;;;;;0.57;0.10;;;;;;;;;;4998885;28;20033;-78
2024/04/04 00:07:39;;;;;;;0.20;0.20;;;;;;;;;;4991206;28;20037;-78
2024/04/04 00:10:05;;;;;;;0.10;0.10;;;;;;;;;;4992341;28;20101;-78
2024/04/04 00:12:32;;;;;;;0.80;0.30;;;;;;;;;;5014914;28;20022;-79
2024/04/04 00:14:58;;;;;;;0.75;0.20;;;;;;;;;;5012395;28;20030;-77
2024/04/04 00:17:24;;;;;;;0.17;0.13;;;;;;;;;;5032950;28;20052;-78
2024/04/04 00:19:50;;;;;;;0.30;0.10;;;;;;;;;;5016093;28;20025;-76
2024/04/04 00:22:17;;;;;;;0.10;0.10;;;;;;;;;;5012980;28;20026;-77
2024/04/04 00:24:43;;;;;;;0.43;0.20;;;;;;;;;;5033556;28;20090;-77
2024/04/04 00:27:09;;;;;;;0.30;0.20;;;;;;;;;;5031058;28;20034;-78
2024/04/04 00:29:35;;;;;;;0.30;0.30;;;;;;;;;;5005208;28;20032;-80
2024/04/04 00:32:01;;;;;;;0.15;0.15;;;;;;;;;;5016534;28;20018;-78
2024/04/04 00:34:28;;;;;;;0.32;0.20;;;;;;;;;;4998494;28;20029;-79
2024/04/04 00:36:54;;;;;;;0.10;0.10;;;;;;;;;;5012015;28;20086;-79
2024/04/04 00:39:20;;;;;;;0.43;0.10;;;;;;;;;;5012305;28;20413;-78
2024/04/04 00:41:46;;;;;;;0.45;0.20;;;;;;;;;;5016099;28;20580;-78
2024/04/04 00:44:12;;;;;;;0.25;0.25;;;;;;;;;;5013148;28;20027;-78
2024/04/04 00:46:38;;;;;;;0.50;0.20;;;;;;;;;;4998175;28;20040;-79
2024/04/04 00:49:04;;;;;;;0.38;0.20;;;;;;;;;;5015344;28;20081;-79
2024/04/04 00:51:31;;;;;;;0.38;0.25;;;;;;;;;;5017102;28;20022;-78
2024/04/04 00:53:57;;;;;;;0.10;0.10;;;;;;;;;;5014476;28;20431;-79
2024/04/04 00:56:24;;;;;;;0.20;0.10;;;;;;;;;;4997961;28;20028;-79
2024/04/04 00:58:50;;;;;;;0.10;0.10;;;;;;;;;;5017347;28;20022;-79
2024/04/04 01:01:16;;;;;;;0.63;0.20;;;;;;;;;;5016463;28;20022;-79
2024/04/04 01:03:43;;;;;;;1.30;0.32;;;;;;;;;;5001653;28;20049;-78
2024/04/04 01:06:09;;;;;;;0.38;0.28;;;;;;;;;;5022977;28;20032;-79
2024/04/04 01:08:35;;;;;;;0.10;0.10;;;;;;;;;;5021656;28;20018;-80
2024/04/04 01:11:01;;;;;;;0.17;0.10;;;;;;;;;;5018580;28;20026;-80
2024/04/04 01:13:27;;;;;;;0.10;0.10;;;;;;;;;;5002472;28;20021;-78
2024/04/04 01:15:53;;;;;;;0.20;0.20;;;;;;;;;;5019224;28;20026;-79
2024/04/04 01:18:20;;;;;;;0.10;0.00;;;;;;;;;;5020507;28;20032;-79
2024/04/04 01:20:46;;;;;;;0.60;0.20;;;;;;;;;;5019093;28;20034;-77
2024/04/04 01:23:12;;;;;;;0.22;0.22;;;;;;;;;;5036044;28;20060;-77
2024/04/04 01:25:39;;;;;;;0.38;0.30;;;;;;;;;;5027716;28;20125;-79
2024/04/04 01:28:05;;;;;;;1.15;0.20;;;;;;;;;;4996091;28;20025;-78
2024/04/04 01:30:31;;;;;;;0.52;0.20;;;;;;;;;;5036514;28;20018;-77
2024/04/04 01:32:57;;;;;;;0.40;0.10;;;;;;;;;;5010985;28;20451;-79
2024/04/04 01:35:24;;;;;;;0.32;0.20;;;;;;;;;;5021143;28;20029;-79
2024/04/04 01:37:50;;;;;;;0.55;0.20;;;;;;;;;;5020369;28;20120;-77
2024/04/04 01:40:16;;;;;;;0.15;0.15;;;;;;;;;;5015540;28;20429;-79
2024/04/04 01:42:42;;;;;;;0.47;0.20;;;;;;;;;;5016348;28;20025;-77
2024/04/04 01:45:08;;;;;;;0.32;0.08;;;;;;;;;;5020232;28;20389;-78
2024/04/04 01:47:35;;;;;;;0.38;0.20;;;;;;;;;;4996253;28;20480;-78
2024/04/04 01:50:02;;;;;;;0.75;0.40;;;;;;;;;;5010904;28;20113;-80
2024/04/04 01:52:28;;;;;;;0.55;0.40;;;;;;;;;;4994135;28;20049;-79
2024/04/04 01:54:55;;;;;;;0.85;0.20;;;;;;;;;;5014205;28;20036;-79
2024/04/04 01:57:21;;;;;;;0.47;0.25;;;;;;;;;;5015033;28;20046;-79
2024/04/04 01:59:47;;;;;;;0.38;0.17;;;;;;;;;;5019971;28;20419;-78
2024/04/04 02:02:13;;;;;;;0.22;0.22;;;;;;;;;;5017598;28;20061;-78
2024/04/04 02:04:39;;;;;;;0.50;0.30;;;;;;;;;;5018705;28;20037;-79
2024/04/04 02:07:05;;;;;;;0.20;0.10;;;;;;;;;;5009872;28;20132;-79
2024/04/04 02:09:31;;;;;;;0.20;0.10;;;;;;;;;;5014890;28;20018;-79
2024/04/04 02:11:58;;;;;;;0.17;0.10;;;;;;;;;;5011977;28;20030;-78
2024/04/04 02:14:24;;;;;;;0.43;0.10;;;;;;;;;;5023413;28;20416;-79
2024/04/04 02:16:50;;;;;;;1.17;0.30;;;;;;;;;;5025010;28;20188;-79
2024/04/04 02:19:16;;;;;;;0.75;0.28;;;;;;;;;;5027253;28;20105;-80
2024/04/04 02:21:42;;;;;;;0.55;0.30;;;;;;;;;;5018975;28;20583;-80
2024/04/04 02:24:08;;;;;;;0.80;0.25;;;;;;;;;;5012199;28;20088;-80
2024/04/04 02:26:34;;;;;;;0.35;0.20;;;;;;;;;;4999242;28;20022;-80
2024/04/04 02:29:01;;;;;;;0.43;0.35;;;;;;;;;;5013890;28;20045;-80
2024/04/04 02:31:27;;;;;;;0.50;0.10;;;;;;;;;;5015680;28;20354;-78
2024/04/04 02:33:53;;;;;;;1.17;0.20;;;;;;;;;;5003705;28;20025;-78
2024/04/04 02:36:19;;;;;;;0.50;0.20;;;;;;;;;;5011178;28;20131;-78
2024/04/04 02:38:46;;;;;;;0.10;0.10;;;;;;;;;;5010115;28;20133;-77
2024/04/04 02:41:12;;;;;;;0.57;0.25;;;;;;;;;;5008935;28;20059;-78
2024/04/04 02:43:39;;;;;;;0.77;0.52;;;;;;;;;;5010676;28;20033;-79
2024/04/04 02:46:05;;;;;;;0.75;0.10;;;;;;;;;;5011430;28;20488;-78
2024/04/04 02:48:31;;;;;;;0.38;0.28;;;;;;;;;;5003026;28;20034;-78
2024/04/04 02:50:59;;;;;;;0.60;0.20;;;;;;;;;;4997252;28;20544;-77
2024/04/04 02:53:25;;;;;;;0.52;0.30;;;;;;;;;;4996256;28;20026;-78
2024/04/04 02:55:58;;;;;;;0.25;0.20;;;;;;;;;;4982031;28;20086;-78
2024/04/04 02:58:25;;;;;;;0.43;0.17;;;;;;;;;;5000931;28;20136;-78
2024/04/04 03:00:52;;;;;;;0.75;0.10;;;;;;;;;;4998506;28;20041;-79
2024/04/04 03:03:18;;;;;;;0.57;0.25;;;;;;;;;;4986321;28;20133;-77
2024/04/04 03:05:45;;;;;;;0.10;0.10;;;;;;;;;;4996473;28;20454;-79
2024/04/04 03:08:12;;;;;;;0.10;0.10;;;;;;;;;;5004532;28;20019;-78
2024/04/04 03:10:39;;;;;;;0.17;0.17;;;;;;;;;;4986694;28;20121;-78
2024/04/04 03:13:05;;;;;;;0.47;0.20;;;;;;;;;;5006873;28;20025;-78
2024/04/04 03:15:31;;;;;;;1.05;0.20;;;;;;;;;;5010112;28;20500;-80
2024/04/04 03:17:58;;;;;;;0.52;0.20;;;;;;;;;;5012976;28;20053;-77
2024/04/04 03:20:25;;;;;;;0.22;0.20;;;;;;;;;;5011354;28;20062;-76
2024/04/04 03:22:51;;;;;;;1.13;0.28;;;;;;;;;;4994906;28;20027;-77
2024/04/04 03:25:17;;;;;;;0.30;0.20;;;;;;;;;;4995885;28;20057;-78
2024/04/04 03:27:43;;;;;;;0.25;0.22;;;;;;;;;;5002074;28;20080;-78
2024/04/04 03:30:10;;;;;;;0.20;0.13;;;;;;;;;;5014711;28;20416;-78
2024/04/04 03:32:37;;;;;;;0.30;0.20;;;;;;;;;;5015372;28;20018;-78
2024/04/04 03:35:03;;;;;;;0.45;0.17;;;;;;;;;;5014896;28;20026;-77
2024/04/04 03:37:29;;;;;;;1.08;0.40;;;;;;;;;;5005261;28;20030;-79
2024/04/04 03:39:55;;;;;;;0.10;0.10;;;;;;;;;;5008156;28;20022;-79
2024/04/04 03:42:22;;;;;;;0.90;0.28;;;;;;;;;;5019054;28;20028;-80
2024/04/04 03:44:51;;;;;;;0.43;0.17;;;;;;;;;;5025276;28;20036;-80
2024/04/04 03:47:18;;;;;;;1.83;0.35;;;;;;;;;;4988925;28;20064;-80
2024/04/04 03:49:44;;;;;;;0.13;0.13;;;;;;;;;;5007344;28;20082;-80
2024/04/04 03:52:10;;;;;;;0.75;0.30;;;;;;;;;;4989101;28;20010;-80
2024/04/04 03:54:37;;;;;;;0.90;0.20;;;;;;;;;;5006579;28;20041;-80
2024/04/04 03:57:03;;;;;;;0.20;0.10;;;;;;;;;;5018534;28;20029;-80
2024/04/04 03:59:29;;;;;;;0.68;0.25;;;;;;;;;;5024297;28;20094;-79
2024/04/04 04:01:57;;;;;;;0.80;0.20;;;;;;;;;;5019741;28;20026;-79
2024/04/04 04:04:23;;;;;;;0.60;0.20;;;;;;;;;;4997094;28;20046;-80
2024/04/04 04:06:50;;;;;;;0.47;0.17;;;;;;;;;;5018138;28;20011;-80
2024/04/04 04:09:19;;;;;;;0.20;0.10;;;;;;;;;;5011516;28;20118;-81
2024/04/04 04:11:45;;;;;;;0.47;0.20;;;;;;;;;;5017641;28;20109;-80
2024/04/04 04:14:11;;;;;;;0.40;0.13;;;;;;;;;;5004288;28;20042;-80
2024/04/04 04:16:37;;;;;;;0.20;0.20;;;;;;;;;;5012015;28;20030;-78
2024/04/04 04:19:04;;;;;;;0.10;0.00;;;;;;;;;;5008281;28;20042;-78
2024/04/04 04:21:30;;;;;;;0.40;0.10;;;;;;;;;;5014577;28;20022;-79
2024/04/04 04:23:57;;;;;;;0.05;0.05;;;;;;;;;;5028329;28;20050;-81
2024/04/04 04:26:24;;;;;;;0.10;0.10;;;;;;;;;;4998440;28;20046;-82
2024/04/04 04:28:50;;;;;;;0.30;0.10;;;;;;;;;;5007645;28;20038;-83
2024/04/04 04:31:27;;;;;;;0.00;0.00;;;;;;;;;;5004473;28;20022;-81
2024/04/04 04:33:54;;;;;;;0.98;0.20;;;;;;;;;;5028257;28;20032;-79
2024/04/04 04:36:23;;;;;;;0.35;0.20;;;;;;;;;;5010489;28;20038;-80
2024/04/04 04:38:49;;;;;;;0.32;0.20;;;;;;;;;;5028927;28;20053;-78
2024/04/04 04:41:15;;;;;;;0.52;0.30;;;;;;;;;;5018979;28;20022;-77
2024/04/04 04:43:43;;;;;;;0.43;0.28;;;;;;;;;;5033286;28;20026;-78
2024/04/04 04:46:12;;;;;;;0.10;0.10;;;;;;;;;;4997851;28;20010;-81
2024/04/04 04:48:38;;;;;;;1.45;0.22;;;;;;;;;;5017570;28;20040;-81
2024/04/04 04:51:05;;;;;;;0.30;0.20;;;;;;;;;;5017765;28;20089;-81
2024/04/04 04:53:31;;;;;;;0.47;0.13;;;;;;;;;;4992903;28;20124;-80
2024/04/04 04:55:57;;;;;;;0.40;0.20;;;;;;;;;;5022999;28;20029;-82
2024/04/04 04:58:23;;;;;;;1.65;0.22;;;;;;;;;;5010451;28;20036;-81
2024/04/04 05:00:52;;;;;;;0.35;0.03;;;;;;;;;;5033567;28;20053;-82
2024/04/04 05:03:21;;;;;;;0.43;0.10;;;;;;;;;;5000411;28;20018;-82
2024/04/04 05:05:48;;;;;;;0.20;0.05;;;;;;;;;;4989844;28;20034;-81
2024/04/04 05:08:14;;;;;;;0.57;0.30;;;;;;;;;;4993921;28;20028;-81
2024/04/04 05:10:41;;;;;;;0.15;0.05;;;;;;;;;;4995031;28;20076;-81
2024/04/04 05:13:07;;;;;;;0.10;0.10;;;;;;;;;;5011199;28;20420;-81
2024/04/04 05:15:42;;;;;;;0.20;0.17;;;;;;;;;;5008794;28;20086;-82
2024/04/04 05:18:08;;;;;;;0.20;0.20;;;;;;;;;;5007759;28;20382;-81
2024/04/04 05:20:34;;;;;;;0.65;0.10;;;;;;;;;;5008440;28;20033;-81
2024/04/04 05:23:01;;;;;;;0.70;0.20;;;;;;;;;;5016312;28;20042;-81
2024/04/04 05:25:27;;;;;;;0.32;0.10;;;;;;;;;;5016895;28;20081;-81
2024/04/04 05:27:53;;;;;;;0.20;0.20;;;;;;;;;;5013209;28;20026;-81
2024/04/04 05:30:20;;;;;;;0.10;0.10;;;;;;;;;;5020772;28;20022;-82
2024/04/04 05:32:46;;;;;;;0.30;0.20;;;;;;;;;;5018359;28;20022;-81
2024/04/04 05:35:14;;;;;;;0.30;0.20;;;;;;;;;;5022441;28;20148;-81
2024/04/04 05:37:40;;;;;;;0.52;0.10;;;;;;;;;;4995601;28;20037;-81
2024/04/04 05:40:08;;;;;;;0.30;0.13;;;;;;;;;;4994109;28;20201;-82
2024/04/04 05:42:34;;;;;;;0.20;0.20;;;;;;;;;;5002064;28;20026;-81
2024/04/04 05:45:01;;;;;;;0.00;0.00;;;;;;;;;;4992129;28;20064;-81
2024/04/04 05:47:27;;;;;;;0.57;0.30;;;;;;;;;;5021068;28;20018;-81
2024/04/04 05:49:53;;;;;;;1.55;0.32;;;;;;;;;;5031232;28;20043;-79
2024/04/04 05:52:20;;;;;;;9.52;0.65;;;;;;;;;;5024644;28;20018;-79
2024/04/04 05:54:47;;;;;;;0.52;0.20;;;;;;;;;;5028910;28;20037;-78
2024/04/04 05:57:13;;;;;;;0.50;0.30;;;;;;;;;;5030467;28;20010;-78
2024/04/04 05:59:40;;;;;;;0.65;0.30;;;;;;;;;;5014873;28;20018;-79
2024/04/04 06:02:06;;;;;;;0.10;0.10;;;;;;;;;;5011485;28;20025;-77
2024/04/04 06:04:32;;;;;;;1.13;0.30;;;;;;;;;;5001629;28;20034;-78
2024/04/04 06:06:59;;;;;;;0.60;0.30;;;;;;;;;;5027744;28;20014;-80
2024/04/04 06:09:25;;;;;;;0.17;0.10;;;;;;;;;;5003013;28;20045;-81
2024/04/04 06:11:51;;;;;;;0.15;0.15;;;;;;;;;;5022022;28;20026;-80
2024/04/04 06:14:17;;;;;;;0.10;0.10;;;;;;;;;;5016095;28;20071;-80
2024/04/04 06:16:43;;;;;;;0.10;0.10;;;;;;;;;;5020627;28;20023;-83
2024/04/04 06:19:10;;;;;;;0.98;0.30;;;;;;;;;;4988452;28;20010;-81
2024/04/04 06:21:36;;;;;;;0.65;0.20;;;;;;;;;;4985347;28;20522;-81
2024/04/04 06:24:02;;;;;;;0.68;0.30;;;;;;;;;;5004591;28;20030;-81
2024/04/04 06:26:28;;;;;;;0.20;0.20;;;;;;;;;;5015998;28;20062;-82
2024/04/04 06:28:55;;;;;;;1.05;0.25;;;;;;;;;;5021455;28;20026;-81
2024/04/04 06:31:21;;;;;;;0.17;0.17;;;;;;;;;;5023436;28;20076;-79
2024/04/04 06:33:47;;;;;;;0.25;0.20;;;;;;;;;;5025094;28;20025;-78
2024/04/04 06:36:15;;;;;;;0.38;0.20;;;;;;;;;;5008518;28;20018;-79
2024/04/04 06:38:42;;;;;;;0.95;0.35;;;;;;;;;;5000018;28;20030;-80
2024/04/04 06:41:08;;;;;;;0.28;0.20;;;;;;;;;;5006018;28;20039;-80
2024/04/04 06:43:34;;;;;;;0.43;0.20;;;;;;;;;;5005951;28;20040;-81
2024/04/04 06:46:00;;;;;;;0.85;0.15;;;;;;;;;;5018419;28;20053;-79
2024/04/04 06:48:26;;;;;;;0.52;0.20;;;;;;;;;;4991105;28;20488;-77
2024/04/04 06:50:53;;;;;;;0.65;0.13;;;;;;;;;;5025566;28;20022;-81
2024/04/04 06:53:19;;;;;;;0.22;0.22;;;;;;;;;;5023833;28;20026;-80
2024/04/04 06:55:45;;;;;;;1.00;0.30;;;;;;;;;;5011604;28;20053;-81
2024/04/04 06:58:13;;;;;;;0.38;0.30;;;;;;;;;;5014798;28;20013;-82
2024/04/04 07:00:41;;;;;;;2.10;0.30;;;;;;;;;;5032259;28;20014;-80
2024/04/04 07:03:08;;;;;;;0.35;0.10;;;;;;;;;;5016062;28;20053;-80
2024/04/04 07:05:34;;;;;;;1.70;0.30;;;;;;;;;;5005295;28;20026;-81
2024/04/04 07:08:01;;;;;;;1.35;0.17;;;;;;;;;;4993403;28;20087;-80
2024/04/04 07:10:27;;;;;;;0.50;0.20;;;;;;;;;;5006584;28;20049;-80
2024/04/04 07:12:53;;;;;;;3.03;0.30;;;;;;;;;;4997792;28;20105;-80
2024/04/04 07:15:20;;;;;;;0.25;0.25;;;;;;;;;;4998211;28;20401;-80
2024/04/04 07:17:48;;;;;;;1.80;0.32;;;;;;;;;;5013183;28;20056;-81
2024/04/04 07:20:14;;;;;;;1.00;0.40;;;;;;;;;;4988551;28;20512;-79
2024/04/04 07:22:41;;;;;;;1.45;0.68;;;;;;;;;;4985732;28;20053;-80
2024/04/04 07:25:07;;;;;;;0.80;0.52;;;;;;;;;;5003435;28;20030;-80
2024/04/04 07:27:34;;;;;;;5.47;0.60;;;;;;;;;;5004360;28;20465;-79
2024/04/04 07:30:00;;;;;;;2.40;0.70;;;;;;;;;;5023116;28;20025;-78
2024/04/04 07:32:26;;;;;;;0.93;0.43;;;;;;;;;;5021139;28;20501;-80
2024/04/04 07:34:52;;;;;;;2.28;0.60;;;;;;;;;;4996187;28;20037;-81
2024/04/04 07:37:18;;;;;;;1.75;0.70;;;;;;;;;;5016840;28;20030;-80
2024/04/04 07:39:44;;;;;;;2.28;0.68;;;;;;;;;;5006674;28;20076;-80
2024/04/04 07:42:11;;;;;;;1.08;0.70;;;;;;;;;;5020137;28;20025;-80
2024/04/04 07:44:38;;;;;;;1.45;0.98;;;;;;;;;;5024172;28;20053;-78
2024/04/04 07:47:04;;;;;;;1.52;0.95;;;;;;;;;;5022769;28;20032;-79
2024/04/04 07:49:30;;;;;;;2.95;1.40;;;;;;;;;;5015208;28;20030;-78
2024/04/04 07:51:57;;;;;;;1.65;1.30;;;;;;;;;;5023437;28;20422;-78
2024/04/04 07:54:23;;;;;;;2.83;1.75;;;;;;;;;;4988665;28;20035;-78
2024/04/04 07:56:56;;;;;;;2.83;1.40;;;;;;;;;;5005424;28;20098;-79
2024/04/04 07:59:22;;;;;;;0.98;0.90;;;;;;;;;;5009272;28;20041;-78
2024/04/04 08:01:49;;;;;;;1.20;0.77;;;;;;;;;;5017950;28;20026;-79
2024/04/04 08:04:15;;;;;;;1.02;0.63;;;;;;;;;;5017849;28;20045;-79
2024/04/04 08:06:42;;;;;;;0.82;0.55;;;;;;;;;;5020628;28;20033;-79
2024/04/04 08:09:08;;;;;;;0.70;0.70;;;;;;;;;;5009328;28;20046;-79
2024/04/04 08:11:34;;;;;;;2.88;1.25;;;;;;;;;;5001594;28;20026;-80
2024/04/04 08:14:01;;;;;;;2.50;0.80;;;;;;;;;;5003954;28;20095;-79
2024/04/04 08:16:27;;;;;;;0.93;0.63;;;;;;;;;;5000349;28;20443;-80
2024/04/04 08:18:53;;;;;;;2.53;0.93;;;;;;;;;;5020713;28;20105;-79
2024/04/04 08:21:19;;;;;;;1.13;0.45;;;;;;;;;;4997615;28;20049;-79
2024/04/04 08:23:46;;;;;;;1.20;0.43;;;;;;;;;;5000506;28;20030;-81
2024/04/04 08:26:12;;;;;;;3.75;0.40;;;;;;;;;;5001525;28;20117;-80
2024/04/04 08:28:38;;;;;;;0.70;0.40;;;;;;;;;;5010749;28;20333;-79
2024/04/04 08:31:09;;;;;;;2.60;0.55;;;;;;;;;;5011969;28;20069;-80
2024/04/04 08:33:35;;;;;;;2.15;0.55;;;;;;;;;;5019114;28;20018;-80
2024/04/04 08:36:02;;;;;;;1.50;0.55;;;;;;;;;;5017902;28;20057;-80
2024/04/04 08:38:28;;;;;;;0.98;0.77;;;;;;;;;;5008351;28;20022;-80
2024/04/04 08:40:58;;;;;;;1.17;0.77;;;;;;;;;;4999747;28;20042;-80
2024/04/04 08:43:27;;;;;;;1.17;0.40;;;;;;;;;;5024237;28;20032;-81
2024/04/04 08:45:54;;;;;;;0.98;0.40;;;;;;;;;;4988316;28;20046;-80
2024/04/04 08:48:20;;;;;;;0.52;0.35;;;;;;;;;;5018360;28;20018;-80
2024/04/04 08:50:47;;;;;;;0.50;0.40;;;;;;;;;;5001706;28;20038;-79
2024/04/04 08:53:15;;;;;;;0.50;0.40;;;;;;;;;;5023138;28;20061;-79
2024/04/04 08:55:43;;;;;;;2.00;0.45;;;;;;;;;;5021145;28;20049;-79
2024/04/04 08:58:12;;;;;;;2.50;0.50;;;;;;;;;;5012169;28;20049;-78
2024/04/04 09:00:39;;;;;;;2.08;0.60;;;;;;;;;;5017802;28;20025;-80
2024/04/04 09:03:06;;;;;;;0.75;0.40;;;;;;;;;;5007509;28;20072;-82
2024/04/04 09:05:32;;;;;;;0.45;0.40;;;;;;;;;;5002561;28;20056;-80
2024/04/04 09:07:58;;;;;;;0.82;0.50;;;;;;;;;;5019334;28;20026;-79
2024/04/04 09:10:25;;;;;;;2.63;0.43;;;;;;;;;;5026935;28;20085;-80
2024/04/04 09:13:03;;;;;;;0.90;0.63;;;;;;;;;;5016023;28;20080;-80
2024/04/04 09:15:30;;;;;;;1.35;0.57;;;;;;;;;;5015736;28;20427;-80
2024/04/04 09:18:06;;;;;;;0.82;0.40;;;;;;;;;;4999743;28;20404;-80
2024/04/04 09:20:33;;;;;;;1.27;0.60;;;;;;;;;;5018921;28;20040;-80
2024/04/04 09:23:01;;;;;;;2.15;0.60;;;;;;;;;;5013535;28;20023;-80
2024/04/04 09:25:28;;;;;;;2.00;0.30;;;;;;;;;;5014994;28;20037;-79
2024/04/04 09:27:54;;;;;;;2.88;0.65;;;;;;;;;;5031395;28;20018;-81
2024/04/04 09:30:25;;;;;;;0.65;0.40;;;;;;;;;;5023899;28;20040;-79
2024/04/04 09:32:55;;;;;;;3.17;0.60;;;;;;;;;;5021898;28;20037;-79
2024/04/04 09:35:21;;;;;;;0.82;0.55;;;;;;;;;;4997479;28;20052;-80
2024/04/04 09:37:48;;;;;;;1.13;0.75;;;;;;;;;;5006492;28;20025;-80
2024/04/04 09:40:16;;;;;;;1.80;0.70;;;;;;;;;;5023119;28;20049;-80
2024/04/04 09:42:43;;;;;;;1.65;0.70;;;;;;;;;;5010804;28;20052;-79
2024/04/04 09:45:10;;;;;;;1.63;0.52;;;;;;;;;;5020131;28;20095;-80
2024/04/04 09:47:41;;;;;;;1.10;0.60;;;;;;;;;;5007033;28;20022;-79
2024/04/04 09:50:09;;;;;;;1.45;0.57;;;;;;;;;;5019496;28;20021;-81
2024/04/04 09:52:37;;;;;;;1.23;0.63;;;;;;;;;;5027247;28;20021;-80
2024/04/04 09:55:04;;;;;;;1.85;0.65;;;;;;;;;;5022972;28;20039;-80
2024/04/04 09:57:30;;;;;;;1.17;0.45;;;;;;;;;;5039559;28;20052;-80
2024/04/04 10:00:14;;;;;;;1.60;0.60;;;;;;;;;;5034901;28;20013;-79
2024/04/04 10:02:43;;;;;;;2.15;0.68;;;;;;;;;;5003548;28;20029;-80
2024/04/04 10:05:17;;;;;;;1.38;1.00;;;;;;;;;;4998756;28;20026;-80
2024/04/04 10:07:47;;;;;;;0.63;0.57;;;;;;;;;;5025861;28;20029;-80
2024/04/04 10:10:19;;;;;;;1.83;0.77;;;;;;;;;;5048751;28;20017;-80
2024/04/04 10:12:52;;;;;;;1.70;0.73;;;;;;;;;;5028122;28;20117;-80
2024/04/04 10:15:22;;;;;;;1.00;0.57;;;;;;;;;;5013006;28;20117;-80
2024/04/04 10:17:55;;;;;;;1.85;0.57;;;;;;;;;;5008086;28;20065;-80
2024/04/04 10:20:23;;;;;;;1.73;0.60;;;;;;;;;;5014194;28;20041;-79
2024/04/04 10:22:58;;;;;;;1.40;0.77;;;;;;;;;;5019743;28;20056;-80
2024/04/04 10:25:25;;;;;;;0.85;0.52;;;;;;;;;;5025220;28;20032;-82
2024/04/04 10:27:51;;;;;;;1.08;0.50;;;;;;;;;;4999186;28;20136;-82
2024/04/04 10:30:20;;;;;;;1.77;0.70;;;;;;;;;;5024684;28;20018;-82
2024/04/04 10:32:46;;;;;;;1.02;0.50;;;;;;;;;;5010387;28;20108;-82
2024/04/04 10:35:14;;;;;;;2.55;0.85;;;;;;;;;;5013912;28;20086;-83
2024/04/04 10:37:40;;;;;;;1.67;0.82;;;;;;;;;;5005087;28;20492;-82
2024/04/04 10:40:06;;;;;;;0.95;0.55;;;;;;;;;;5017834;28;20033;-82
2024/04/04 10:42:32;;;;;;;0.75;0.50;;;;;;;;;;5014174;28;20013;-83
2024/04/04 10:44:58;;;;;;;0.95;0.60;;;;;;;;;;5006273;28;20054;-84
2024/04/04 10:47:25;;;;;;;1.42;0.60;;;;;;;;;;5016198;28;20078;-81
2024/04/04 10:49:51;;;;;;;1.23;0.60;;;;;;;;;;5019059;28;20034;-82
2024/04/04 10:52:18;;;;;;;1.50;0.90;;;;;;;;;;5019031;28;20026;-82
2024/04/04 10:54:44;;;;;;;1.13;0.50;;;;;;;;;;5024225;28;20042;-83
2024/04/04 10:57:11;;;;;;;1.58;0.82;;;;;;;;;;5021333;28;20148;-83
2024/04/04 10:59:37;;;;;;;2.33;0.50;;;;;;;;;;5014604;28;20552;-82
2024/04/04 11:02:04;;;;;;;1.13;0.70;;;;;;;;;;5015528;28;20033;-82
2024/04/04 11:04:32;;;;;;;0.60;0.60;;;;;;;;;;5031879;28;20029;-82
2024/04/04 11:06:58;;;;;;;2.58;0.90;;;;;;;;;;5005655;28;20006;-83
2024/04/04 11:09:26;;;;;;;2.45;0.98;;;;;;;;;;5025797;28;20035;-82
2024/04/04 11:11:53;;;;;;;1.45;0.50;;;;;;;;;;5029766;28;20022;-83
2024/04/04 11:14:23;;;;;;;2.30;0.88;;;;;;;;;;5008666;28;20049;-82
2024/04/04 11:16:53;;;;;;;0.63;0.63;;;;;;;;;;5004912;28;20050;-83
2024/04/04 11:19:23;;;;;;;1.45;0.38;;;;;;;;;;5011817;28;20074;-81
2024/04/04 11:21:50;;;;;;;1.63;0.98;;;;;;;;;;5006836;28;20026;-82
2024/04/04 11:24:17;;;;;;;1.30;0.70;;;;;;;;;;5028792;28;20110;-81
2024/04/04 11:26:43;;;;;;;2.42;0.82;;;;;;;;;;5019656;28;20022;-81
2024/04/04 11:29:10;;;;;;;2.28;0.65;;;;;;;;;;5016621;28;20018;-81
2024/04/04 11:31:44;;;;;;;1.33;0.50;;;;;;;;;;5030766;28;20014;-81
2024/04/04 11:34:10;;;;;;;2.40;0.63;;;;;;;;;;5030745;28;20101;-81
2024/04/04 11:36:36;;;;;;;1.73;0.50;;;;;;;;;;5021765;28;20022;-81
2024/04/04 11:39:03;;;;;;;2.17;0.85;;;;;;;;;;5003725;28;20445;-81
2024/04/04 11:41:29;;;;;;;1.50;0.75;;;;;;;;;;5025486;28;20032;-81
2024/04/04 11:43:55;;;;;;;1.45;0.60;;;;;;;;;;5025411;28;20040;-81
2024/04/04 11:46:22;;;;;;;0.98;0.50;;;;;;;;;;5014702;28;20021;-82
2024/04/04 11:48:48;;;;;;;1.17;0.50;;;;;;;;;;5015012;28;20038;-81
2024/04/04 11:51:16;;;;;;;1.25;0.57;;;;;;;;;;5006235;28;20038;-81
2024/04/04 11:53:43;;;;;;;3.05;0.40;;;;;;;;;;5028413;28;20104;-81
2024/04/04 11:56:09;;;;;;;0.93;0.45;;;;;;;;;;5020388;28;20037;-81
2024/04/04 11:58:38;;;;;;;1.50;0.50;;;;;;;;;;5020808;28;20082;-82
2024/04/04 12:01:04;;;;;;;1.52;0.40;;;;;;;;;;5011586;28;20026;-81
2024/04/04 12:03:30;;;;;;;1.55;0.38;;;;;;;;;;5005548;28;20030;-81
2024/04/04 12:05:57;;;;;;;0.80;0.50;;;;;;;;;;5007884;28;20021;-80
2024/04/04 12:08:23;;;;;;;2.08;0.50;;;;;;;;;;5043979;28;20049;-80
2024/04/04 12:10:49;;;;;;;2.67;0.73;;;;;;;;;;5045996;28;20022;-81
2024/04/04 12:13:15;;;;;;;0.57;0.35;;;;;;;;;;5044920;28;20063;-82
2024/04/04 12:15:48;;;;;;;2.55;0.98;;;;;;;;;;5028222;28;20385;-81
2024/04/04 12:20:59;;;;;;;2.60;0.60;;;;;;;;;;5020656;28;20061;-81
2024/04/04 12:23:25;;;;;;;1.98;1.10;;;;;;;;;;4999340;28;20393;-80
2024/04/04 12:25:52;;;;;;;1.48;0.70;;;;;;;;;;4996408;28;20184;-80
2024/04/04 12:28:19;;;;;;;0.65;0.40;;;;;;;;;;5026558;28;20057;-81
2024/04/04 12:30:45;;;;;;;3.33;0.60;;;;;;;;;;5043973;28;20032;-79
2024/04/04 12:33:11;;;;;;;2.03;0.60;;;;;;;;;;5021310;28;20034;-80
2024/04/04 12:35:38;;;;;;;1.90;0.80;;;;;;;;;;5020421;28;20023;-79
2024/04/04 12:38:05;;;;;;;3.40;0.90;;;;;;;;;;5020715;28;20077;-80
2024/04/04 12:40:31;;;;;;;1.48;0.68;;;;;;;;;;5020480;28;20476;-79
2024/04/04 12:42:57;;;;;;;2.08;0.77;;;;;;;;;;4997418;28;20104;-79
2024/04/04 12:45:23;;;;;;;2.20;0.70;;;;;;;;;;5015933;28;20053;-79
2024/04/04 12:47:49;;;;;;;1.35;0.50;;;;;;;;;;5022796;28;20038;-80
2024/04/04 12:50:16;;;;;;;1.77;0.63;;;;;;;;;;5023041;28;20014;-80
2024/04/04 12:52:42;;;;;;;1.45;0.82;;;;;;;;;;5012396;28;20022;-80
2024/04/04 12:55:09;;;;;;;2.20;0.70;;;;;;;;;;5011957;28;20086;-79
2024/04/04 12:57:35;;;;;;;0.95;0.55;;;;;;;;;;5023503;28;20025;-79
2024/04/04 13:00:01;;;;;;;1.55;0.70;;;;;;;;;;5016830;28;20068;-78
2024/04/04 13:02:27;;;;;;;1.50;0.50;;;;;;;;;;5017960;28;20176;-78
2024/04/04 13:04:54;;;;;;;2.17;0.80;;;;;;;;;;5016156;28;20025;-79
2024/04/04 13:07:21;;;;;;;0.77;0.57;;;;;;;;;;5015690;28;20086;-79
2024/04/04 13:09:47;;;;;;;0.40;0.40;;;;;;;;;;5004296;28;20064;-79
2024/04/04 13:12:13;;;;;;;0.95;0.30;;;;;;;;;;5012731;28;20583;-79
2024/04/04 13:14:39;;;;;;;0.75;0.30;;;;;;;;;;5007519;28;20033;-80
2024/04/04 13:17:05;;;;;;;1.65;0.68;;;;;;;;;;5021192;28;20105;-79
2024/04/04 13:19:32;;;;;;;2.08;0.50;;;;;;;;;;5025818;28;20025;-79
2024/04/04 13:21:59;;;;;;;1.13;0.60;;;;;;;;;;5022919;28;20058;-79
2024/04/04 13:24:25;;;;;;;1.30;0.60;;;;;;;;;;4996978;28;20028;-79
2024/04/04 13:26:51;;;;;;;1.00;0.80;;;;;;;;;;5016942;28;20038;-79
2024/04/04 13:29:17;;;;;;;1.13;0.50;;;;;;;;;;4986088;28;20027;-79
2024/04/04 13:31:44;;;;;;;1.63;0.63;;;;;;;;;;4999798;28;20050;-79
2024/04/04 13:34:10;;;;;;;1.10;0.60;;;;;;;;;;5009935;28;20027;-79
2024/04/04 13:36:36;;;;;;;1.63;0.60;;;;;;;;;;5023993;28;20038;-79
2024/04/04 13:39:02;;;;;;;0.90;0.82;;;;;;;;;;5014392;28;20533;-79
2024/04/04 13:41:28;;;;;;;1.95;0.90;;;;;;;;;;4996050;28;20033;-80
2024/04/04 13:43:55;;;;;;;2.08;0.68;;;;;;;;;;4996948;28;20077;-80
2024/04/04 13:46:21;;;;;;;2.58;1.02;;;;;;;;;;5014532;28;20030;-81
2024/04/04 13:48:48;;;;;;;0.95;0.60;;;;;;;;;;5020466;28;20468;-78
2024/04/04 13:51:14;;;;;;;4.55;0.90;;;;;;;;;;5014447;28;20132;-79
2024/04/04 13:53:40;;;;;;;1.67;0.50;;;;;;;;;;4997417;28;20022;-78
2024/04/04 13:56:07;;;;;;;2.22;0.68;;;;;;;;;;5023602;28;20046;-80
2024/04/04 13:58:33;;;;;;;3.15;0.85;;;;;;;;;;5020133;28;20093;-81
2024/04/04 14:01:00;;;;;;;0.75;0.63;;;;;;;;;;5037867;28;20033;-80
2024/04/04 14:03:26;;;;;;;1.73;0.52;;;;;;;;;;5035360;28;20110;-80
2024/04/04 14:05:52;;;;;;;0.63;0.60;;;;;;;;;;5013725;28;20105;-79
2024/04/04 14:08:18;;;;;;;0.60;0.50;;;;;;;;;;5000132;28;20025;-80
2024/04/04 14:10:44;;;;;;;0.50;0.40;;;;;;;;;;4997181;28;20038;-81
2024/04/04 14:13:10;;;;;;;0.50;0.50;;;;;;;;;;5004273;28;20025;-79
2024/04/04 14:15:37;;;;;;;1.75;0.65;;;;;;;;;;5013109;28;20065;-81
2024/04/04 14:18:04;;;;;;;1.33;0.47;;;;;;;;;;4999353;28;20512;-80
2024/04/04 14:20:31;;;;;;;0.75;0.52;;;;;;;;;;5009770;28;20018;-80
2024/04/04 14:22:57;;;;;;;0.95;0.50;;;;;;;;;;5008637;28;20052;-80
2024/04/04 14:25:23;;;;;;;0.65;0.35;;;;;;;;;;5019622;28;20034;-79
2024/04/04 14:27:49;;;;;;;1.02;0.55;;;;;;;;;;5011668;28;20101;-79
2024/04/04 14:30:16;;;;;;;2.53;0.55;;;;;;;;;;4987516;28;20113;-80
2024/04/04 14:32:42;;;;;;;2.72;0.95;;;;;;;;;;5008494;28;20018;-80
2024/04/04 14:35:11;;;;;;;0.73;0.57;;;;;;;;;;4999690;28;20057;-79
2024/04/04 14:37:38;;;;;;;1.95;0.57;;;;;;;;;;5013995;28;20050;-79
2024/04/04 14:40:05;;;;;;;2.08;1.10;;;;;;;;;;5009957;28;20038;-79
2024/04/04 14:42:31;;;;;;;2.28;0.65;;;;;;;;;;5018904;28;20141;-80